sensor_id;sensor_type;location;lat;lon;timestamp;pressure;altitude;pressure_sealevel;temperature;humidity
84696;BME280;74913;40.204;44.532;2024-03-06T00:02:01;87728.50;;;9.43;35.79
84696;BME280;74913;40.204;44.532;2024-03-06T00:04:27;87742.03;;;9.51;36.23
84696;BME280;74913;40.204;44.532;2024-03-06T00:06:53;87740.28;;;9.53;36.54
84696;BME280;74913;40.204;44.532;2024-03-06T00:09:21;87733.16;;;9.56;35.94
84696;BME280;74913;40.204;44.532;2024-03-06T00:11:46;87735.31;;;9.57;36.61
84696;BME280;74913;40.204;44.532;2024-03-06T00:14:12;87718.16;;;9.47;36.27
84696;BME280;74913;40.204;44.532;2024-03-06T00:16:38;87736.34;;;9.54;35.79
84696;BME280;74913;40.204;44.532;2024-03-06T00:19:04;87724.19;;;9.53;36.17
84696;BME280;74913;40.204;44.532;2024-03-06T00:21:30;87720.47;;;9.43;36.76
84696;BME280;74913;40.204;44.532;2024-03-06T00:23:55;87729.53;;;9.40;36.33
84696;BME280;74913;40.204;44.532;2024-03-06T00:26:21;87733.66;;;9.28;36.44
84696;BME280;74913;40.204;44.532;2024-03-06T00:28:47;87729.13;;;9.23;36.20
84696;BME280;74913;40.204;44.532;2024-03-06T00:31:13;87730.13;;;9.20;36.74
84696;BME280;74913;40.204;44.532;2024-03-06T00:33:40;87728.28;;;9.15;37.23
84696;BME280;74913;40.204;44.532;2024-03-06T00:36:06;87726.94;;;9.09;37.22
84696;BME280;74913;40.204;44.532;2024-03-06T00:38:31;87730.72;;;9.00;36.93
84696;BME280;74913;40.204;44.532;2024-03-06T00:40:57;87732.56;;;8.92;36.94
84696;BME280;74913;40.204;44.532;2024-03-06T00:43:23;87734.63;;;8.86;36.84
84696;BME280;74913;40.204;44.532;2024-03-06T00:45:49;87738.13;;;8.81;37.29
84696;BME280;74913;40.204;44.532;2024-03-06T00:48:14;87734.38;;;8.71;37.06
84696;BME280;74913;40.204;44.532;2024-03-06T00:50:40;87732.06;;;8.62;37.64
84696;BME280;74913;40.204;44.532;2024-03-06T00:53:06;87734.53;;;8.60;37.41
84696;BME280;74913;40.204;44.532;2024-03-06T00:55:32;87734.13;;;8.56;37.67
84696;BME280;74913;40.204;44.532;2024-03-06T00:57:58;87736.19;;;8.63;38.10
84696;BME280;74913;40.204;44.532;2024-03-06T01:00:23;87726.34;;;8.71;38.05
84696;BME280;74913;40.204;44.532;2024-03-06T01:02:56;87731.28;;;8.80;37.83
84696;BME280;74913;40.204;44.532;2024-03-06T01:05:22;87738.25;;;8.88;37.24
84696;BME280;74913;40.204;44.532;2024-03-06T01:07:48;87743.09;;;8.90;37.43
84696;BME280;74913;40.204;44.532;2024-03-06T01:10:13;87734.31;;;8.89;37.88
84696;BME280;74913;40.204;44.532;2024-03-06T01:12:39;87732.16;;;8.88;37.27
84696;BME280;74913;40.204;44.532;2024-03-06T01:15:05;87730.91;;;8.89;37.39
84696;BME280;74913;40.204;44.532;2024-03-06T01:17:30;87738.16;;;8.94;37.02
84696;BME280;74913;40.204;44.532;2024-03-06T01:19:56;87733.28;;;8.92;37.66
84696;BME280;74913;40.204;44.532;2024-03-06T01:22:22;87733.41;;;9.00;37.63
84696;BME280;74913;40.204;44.532;2024-03-06T01:24:47;87733.84;;;9.04;37.66
84696;BME280;74913;40.204;44.532;2024-03-06T01:27:18;87744.78;;;9.06;37.70
84696;BME280;74913;40.204;44.532;2024-03-06T01:29:43;87749.13;;;9.09;37.89
84696;BME280;74913;40.204;44.532;2024-03-06T01:32:09;87755.72;;;9.08;38.00
84696;BME280;74913;40.204;44.532;2024-03-06T01:34:38;87757.75;;;9.02;37.39
84696;BME280;74913;40.204;44.532;2024-03-06T01:37:04;87759.41;;;9.05;38.40
84696;BME280;74913;40.204;44.532;2024-03-06T01:39:29;87768.94;;;9.06;38.41
84696;BME280;74913;40.204;44.532;2024-03-06T01:41:55;87771.63;;;9.06;37.44
84696;BME280;74913;40.204;44.532;2024-03-06T01:44:20;87770.34;;;9.07;37.39
84696;BME280;74913;40.204;44.532;2024-03-06T01:46:46;87773.03;;;9.07;37.54
84696;BME280;74913;40.204;44.532;2024-03-06T01:49:12;87773.78;;;9.08;37.39
84696;BME280;74913;40.204;44.532;2024-03-06T01:51:42;87754.25;;;8.94;38.19
84696;BME280;74913;40.204;44.532;2024-03-06T01:54:11;87769.22;;;9.02;38.17
84696;BME280;74913;40.204;44.532;2024-03-06T01:56:36;87768.69;;;8.91;38.20
84696;BME280;74913;40.204;44.532;2024-03-06T01:59:03;87769.69;;;8.88;37.81
84696;BME280;74913;40.204;44.532;2024-03-06T02:01:31;87740.75;;;8.68;37.64
84696;BME280;74913;40.204;44.532;2024-03-06T02:03:58;87759.31;;;8.66;38.82
84696;BME280;74913;40.204;44.532;2024-03-06T02:06:25;87763.25;;;8.46;38.17
84696;BME280;74913;40.204;44.532;2024-03-06T02:08:51;87760.25;;;8.36;38.65
84696;BME280;74913;40.204;44.532;2024-03-06T02:11:17;87763.72;;;8.31;39.33
84696;BME280;74913;40.204;44.532;2024-03-06T02:13:43;87759.78;;;8.32;39.11
84696;BME280;74913;40.204;44.532;2024-03-06T02:16:10;87751.69;;;8.38;38.99
84696;BME280;74913;40.204;44.532;2024-03-06T02:18:36;87765.34;;;8.34;39.53
84696;BME280;74913;40.204;44.532;2024-03-06T02:21:02;87758.91;;;8.43;38.67
84696;BME280;74913;40.204;44.532;2024-03-06T02:23:28;87753.69;;;8.51;38.39
84696;BME280;74913;40.204;44.532;2024-03-06T02:25:54;87761.06;;;8.63;38.58
84696;BME280;74913;40.204;44.532;2024-03-06T02:28:19;87761.19;;;8.71;38.00
84696;BME280;74913;40.204;44.532;2024-03-06T02:30:45;87759.84;;;8.77;38.20
84696;BME280;74913;40.204;44.532;2024-03-06T02:33:14;87756.09;;;8.86;38.43
84696;BME280;74913;40.204;44.532;2024-03-06T02:35:40;87763.00;;;8.94;38.55
84696;BME280;74913;40.204;44.532;2024-03-06T02:38:06;87765.09;;;9.01;38.75
84696;BME280;74913;40.204;44.532;2024-03-06T02:40:32;87761.09;;;9.08;39.05
84696;BME280;74913;40.204;44.532;2024-03-06T02:42:58;87768.19;;;9.06;38.51
84696;BME280;74913;40.204;44.532;2024-03-06T02:45:23;87768.03;;;9.17;38.35
84696;BME280;74913;40.204;44.532;2024-03-06T02:47:49;87769.91;;;9.22;37.93
84696;BME280;74913;40.204;44.532;2024-03-06T02:50:15;87767.09;;;9.27;38.39
84696;BME280;74913;40.204;44.532;2024-03-06T02:52:41;87773.41;;;9.30;38.20
84696;BME280;74913;40.204;44.532;2024-03-06T02:55:14;87784.03;;;9.35;38.76
84696;BME280;74913;40.204;44.532;2024-03-06T02:57:40;87776.94;;;9.38;39.58
84696;BME280;74913;40.204;44.532;2024-03-06T03:00:06;87781.56;;;9.37;40.27
84696;BME280;74913;40.204;44.532;2024-03-06T03:02:38;87778.38;;;9.39;40.08
84696;BME280;74913;40.204;44.532;2024-03-06T03:05:04;87775.16;;;9.40;40.34
84696;BME280;74913;40.204;44.532;2024-03-06T03:07:30;87779.53;;;9.43;40.17
84696;BME280;74913;40.204;44.532;2024-03-06T03:09:56;87774.16;;;9.43;40.64
84696;BME280;74913;40.204;44.532;2024-03-06T03:12:22;87782.41;;;9.45;41.49
84696;BME280;74913;40.204;44.532;2024-03-06T03:14:47;87792.75;;;9.41;40.91
84696;BME280;74913;40.204;44.532;2024-03-06T03:17:13;87796.25;;;9.36;41.38
84696;BME280;74913;40.204;44.532;2024-03-06T03:19:40;87789.22;;;9.33;41.69
84696;BME280;74913;40.204;44.532;2024-03-06T03:22:06;87795.09;;;9.32;40.77
84696;BME280;74913;40.204;44.532;2024-03-06T03:24:33;87792.50;;;9.26;41.22
84696;BME280;74913;40.204;44.532;2024-03-06T03:26:59;87797.88;;;9.26;41.89
84696;BME280;74913;40.204;44.532;2024-03-06T03:29:25;87787.13;;;9.26;41.17
84696;BME280;74913;40.204;44.532;2024-03-06T03:31:50;87793.94;;;9.27;41.52
84696;BME280;74913;40.204;44.532;2024-03-06T03:34:16;87785.28;;;9.21;42.14
84696;BME280;74913;40.204;44.532;2024-03-06T03:36:42;87794.41;;;9.13;41.70
84696;BME280;74913;40.204;44.532;2024-03-06T03:39:10;87801.53;;;9.10;41.84
84696;BME280;74913;40.204;44.532;2024-03-06T03:41:44;87799.25;;;9.01;43.66
84696;BME280;74913;40.204;44.532;2024-03-06T03:44:18;87791.69;;;8.99;43.20
84696;BME280;74913;40.204;44.532;2024-03-06T03:46:44;87790.56;;;8.95;41.91
84696;BME280;74913;40.204;44.532;2024-03-06T03:49:10;87774.34;;;8.87;42.90
84696;BME280;74913;40.204;44.532;2024-03-06T03:51:37;87774.66;;;8.84;42.69
84696;BME280;74913;40.204;44.532;2024-03-06T03:54:03;87792.91;;;8.85;43.22
84696;BME280;74913;40.204;44.532;2024-03-06T03:56:29;87787.41;;;8.78;43.93
84696;BME280;74913;40.204;44.532;2024-03-06T03:58:56;87799.00;;;8.86;42.63
84696;BME280;74913;40.204;44.532;2024-03-06T04:01:22;87793.63;;;8.86;42.76
84696;BME280;74913;40.204;44.532;2024-03-06T04:03:48;87800.44;;;8.87;42.90
84696;BME280;74913;40.204;44.532;2024-03-06T04:06:14;87794.34;;;8.86;42.74
84696;BME280;74913;40.204;44.532;2024-03-06T04:08:39;87786.41;;;8.81;42.45
84696;BME280;74913;40.204;44.532;2024-03-06T04:11:06;87800.44;;;8.87;43.83
84696;BME280;74913;40.204;44.532;2024-03-06T04:13:36;87781.66;;;8.87;43.17
84696;BME280;74913;40.204;44.532;2024-03-06T04:16:02;87790.56;;;8.95;42.57
84696;BME280;74913;40.204;44.532;2024-03-06T04:18:29;87758.50;;;8.71;43.09
84696;BME280;74913;40.204;44.532;2024-03-06T04:20:55;87796.56;;;9.01;42.50
84696;BME280;74913;40.204;44.532;2024-03-06T04:23:20;87783.69;;;9.13;43.06
84696;BME280;74913;40.204;44.532;2024-03-06T04:25:46;87789.63;;;9.24;42.94
84696;BME280;74913;40.204;44.532;2024-03-06T04:28:11;87790.44;;;9.32;42.81
84696;BME280;74913;40.204;44.532;2024-03-06T04:30:38;87792.75;;;9.41;41.87
84696;BME280;74913;40.204;44.532;2024-03-06T04:33:03;87793.38;;;9.60;42.12
84696;BME280;74913;40.204;44.532;2024-03-06T04:35:29;87774.78;;;9.62;42.61
84696;BME280;74913;40.204;44.532;2024-03-06T04:37:55;87772.72;;;9.68;41.38
84696;BME280;74913;40.204;44.532;2024-03-06T04:40:21;87784.28;;;9.77;41.36
84696;BME280;74913;40.204;44.532;2024-03-06T04:42:48;87778.94;;;9.77;41.60
84696;BME280;74913;40.204;44.532;2024-03-06T04:45:17;87776.44;;;9.79;41.46
84696;BME280;74913;40.204;44.532;2024-03-06T04:47:43;87779.72;;;9.85;41.43
84696;BME280;74913;40.204;44.532;2024-03-06T04:50:12;87780.47;;;9.85;40.84
84696;BME280;74913;40.204;44.532;2024-03-06T04:52:40;87781.91;;;9.86;40.91
84696;BME280;74913;40.204;44.532;2024-03-06T04:55:06;87782.03;;;9.94;40.33
84696;BME280;74913;40.204;44.532;2024-03-06T04:57:34;87780.34;;;10.04;40.73
84696;BME280;74913;40.204;44.532;2024-03-06T04:59:59;87784.28;;;10.03;40.67
84696;BME280;74913;40.204;44.532;2024-03-06T05:02:27;87780.56;;;10.06;40.41
84696;BME280;74913;40.204;44.532;2024-03-06T05:04:53;87780.34;;;10.04;40.87
84696;BME280;74913;40.204;44.532;2024-03-06T05:07:19;87789.66;;;10.03;41.15
84696;BME280;74913;40.204;44.532;2024-03-06T05:09:44;87791.22;;;9.98;40.95
84696;BME280;74913;40.204;44.532;2024-03-06T05:12:10;87785.94;;;9.93;40.70
84696;BME280;74913;40.204;44.532;2024-03-06T05:14:36;87775.72;;;9.91;41.33
84696;BME280;74913;40.204;44.532;2024-03-06T05:17:02;87781.09;;;10.04;41.04
84696;BME280;74913;40.204;44.532;2024-03-06T05:19:28;87787.59;;;10.09;41.43
84696;BME280;74913;40.204;44.532;2024-03-06T05:22:00;87779.00;;;10.23;40.13
84696;BME280;74913;40.204;44.532;2024-03-06T05:24:25;87779.31;;;10.33;39.95
84696;BME280;74913;40.204;44.532;2024-03-06T05:26:51;87781.53;;;10.42;40.08
84696;BME280;74913;40.204;44.532;2024-03-06T05:29:17;87775.56;;;10.49;39.94
84696;BME280;74913;40.204;44.532;2024-03-06T05:31:42;87775.56;;;10.49;39.50
84696;BME280;74913;40.204;44.532;2024-03-06T05:34:08;87780.88;;;10.62;38.87
84696;BME280;74913;40.204;44.532;2024-03-06T05:36:34;87765.72;;;10.72;38.56
84696;BME280;74913;40.204;44.532;2024-03-06T05:38:59;87775.66;;;10.77;39.11
84696;BME280;74913;40.204;44.532;2024-03-06T05:41:25;87770.34;;;10.85;38.78
84696;BME280;74913;40.204;44.532;2024-03-06T05:43:51;87771.69;;;10.91;38.00
84696;BME280;74913;40.204;44.532;2024-03-06T05:46:16;87774.63;;;11.01;37.51
84696;BME280;74913;40.204;44.532;2024-03-06T05:48:42;87773.97;;;11.08;37.44
84696;BME280;74913;40.204;44.532;2024-03-06T05:51:08;87763.28;;;11.16;37.13
84696;BME280;74913;40.204;44.532;2024-03-06T05:53:37;87773.38;;;11.23;37.43
84696;BME280;74913;40.204;44.532;2024-03-06T05:56:08;87771.66;;;11.33;37.50
84696;BME280;74913;40.204;44.532;2024-03-06T05:58:33;87776.25;;;11.45;38.45
84696;BME280;74913;40.204;44.532;2024-03-06T06:01:02;87777.66;;;11.59;37.81
84696;BME280;74913;40.204;44.532;2024-03-06T06:03:29;87780.25;;;11.73;38.28
84696;BME280;74913;40.204;44.532;2024-03-06T06:05:56;87766.28;;;11.74;37.95
84696;BME280;74913;40.204;44.532;2024-03-06T06:08:21;87773.91;;;11.91;38.03
84696;BME280;74913;40.204;44.532;2024-03-06T06:10:47;87769.84;;;11.97;38.30
84696;BME280;74913;40.204;44.532;2024-03-06T06:13:13;87776.56;;;12.11;37.84
84696;BME280;74913;40.204;44.532;2024-03-06T06:15:40;87775.19;;;12.26;36.93
84696;BME280;74913;40.204;44.532;2024-03-06T06:18:06;87776.84;;;12.36;37.91
84696;BME280;74913;40.204;44.532;2024-03-06T06:20:32;87775.28;;;12.48;37.32
84696;BME280;74913;40.204;44.532;2024-03-06T06:22:58;87768.84;;;12.59;36.64
84696;BME280;74913;40.204;44.532;2024-03-06T06:25:23;87759.69;;;12.54;36.17
84696;BME280;74913;40.204;44.532;2024-03-06T06:27:49;87769.94;;;12.63;36.33
84696;BME280;74913;40.204;44.532;2024-03-06T06:30:15;87768.34;;;12.68;36.27
84696;BME280;74913;40.204;44.532;2024-03-06T06:32:42;87771.03;;;12.68;36.50
84696;BME280;74913;40.204;44.532;2024-03-06T06:35:09;87766.03;;;12.72;35.87
84696;BME280;74913;40.204;44.532;2024-03-06T06:37:35;87768.91;;;12.74;36.28
84696;BME280;74913;40.204;44.532;2024-03-06T06:40:01;87769.78;;;12.69;36.12
84696;BME280;74913;40.204;44.532;2024-03-06T06:42:32;87768.91;;;12.74;35.80
84696;BME280;74913;40.204;44.532;2024-03-06T06:44:59;87766.91;;;12.67;35.62
84696;BME280;74913;40.204;44.532;2024-03-06T06:47:25;87764.91;;;12.60;35.15
84696;BME280;74913;40.204;44.532;2024-03-06T06:49:50;87767.78;;;12.62;36.04
84696;BME280;74913;40.204;44.532;2024-03-06T06:52:16;87766.34;;;12.61;35.96
84696;BME280;74913;40.204;44.532;2024-03-06T06:54:42;87771.75;;;12.61;35.50
84696;BME280;74913;40.204;44.532;2024-03-06T06:57:08;87779.84;;;12.61;36.64
84696;BME280;74913;40.204;44.532;2024-03-06T06:59:34;87783.94;;;12.54;36.83
84696;BME280;74913;40.204;44.532;2024-03-06T07:02:00;87777.03;;;12.38;37.03
84696;BME280;74913;40.204;44.532;2024-03-06T07:04:25;87776.53;;;12.40;36.16
84696;BME280;74913;40.204;44.532;2024-03-06T07:06:51;87772.75;;;12.43;36.38
84696;BME280;74913;40.204;44.532;2024-03-06T07:09:17;87773.69;;;12.53;35.54
84696;BME280;74913;40.204;44.532;2024-03-06T07:11:44;87759.53;;;12.60;36.08
84696;BME280;74913;40.204;44.532;2024-03-06T07:14:11;87764.25;;;12.82;36.05
84696;BME280;74913;40.204;44.532;2024-03-06T07:16:44;87759.59;;;12.98;35.57
84696;BME280;74913;40.204;44.532;2024-03-06T07:19:10;87760.75;;;13.17;35.73
84696;BME280;74913;40.204;44.532;2024-03-06T07:21:36;87757.19;;;13.37;35.19
84696;BME280;74913;40.204;44.532;2024-03-06T07:24:06;87751.78;;;13.53;35.19
84696;BME280;74913;40.204;44.532;2024-03-06T07:26:34;87747.97;;;13.71;34.32
84696;BME280;74913;40.204;44.532;2024-03-06T07:29:00;87748.69;;;13.79;34.44
84696;BME280;74913;40.204;44.532;2024-03-06T07:31:27;87754.44;;;13.90;33.49
84696;BME280;74913;40.204;44.532;2024-03-06T07:33:52;87749.94;;;13.93;34.09
84696;BME280;74913;40.204;44.532;2024-03-06T07:36:18;87750.84;;;13.88;34.03
84696;BME280;74913;40.204;44.532;2024-03-06T07:38:44;87747.06;;;13.98;33.87
84696;BME280;74913;40.204;44.532;2024-03-06T07:41:10;87745.25;;;14.01;34.39
84696;BME280;74913;40.204;44.532;2024-03-06T07:43:36;87748.84;;;13.96;33.79
84696;BME280;74913;40.204;44.532;2024-03-06T07:46:01;87735.69;;;14.07;33.78
84696;BME280;74913;40.204;44.532;2024-03-06T07:48:27;87741.25;;;14.17;34.09
84696;BME280;74913;40.204;44.532;2024-03-06T07:50:52;87742.34;;;14.14;34.16
84696;BME280;74913;40.204;44.532;2024-03-06T07:53:18;87744.84;;;14.27;34.21
84696;BME280;74913;40.204;44.532;2024-03-06T07:55:44;87745.56;;;14.35;33.78
84696;BME280;74913;40.204;44.532;2024-03-06T07:58:09;87742.47;;;14.39;33.30
84696;BME280;74913;40.204;44.532;2024-03-06T08:00:35;87739.25;;;14.40;33.29
84696;BME280;74913;40.204;44.532;2024-03-06T08:03:01;87735.84;;;14.32;32.75
84696;BME280;74913;40.204;44.532;2024-03-06T08:05:27;87736.56;;;14.33;32.70
84696;BME280;74913;40.204;44.532;2024-03-06T08:07:53;87732.91;;;14.45;32.96
84696;BME280;74913;40.204;44.532;2024-03-06T08:10:22;87738.06;;;14.58;32.84
84696;BME280;74913;40.204;44.532;2024-03-06T08:12:47;87731.06;;;14.55;32.25
84696;BME280;74913;40.204;44.532;2024-03-06T08:15:14;87724.91;;;14.62;32.50
84696;BME280;74913;40.204;44.532;2024-03-06T08:17:42;87729.41;;;14.67;31.99
84696;BME280;74913;40.204;44.532;2024-03-06T08:20:09;87713.50;;;14.71;31.92
84696;BME280;74913;40.204;44.532;2024-03-06T08:22:39;87703.53;;;14.74;31.78
84696;BME280;74913;40.204;44.532;2024-03-06T08:25:10;87717.16;;;14.91;31.36
84696;BME280;74913;40.204;44.532;2024-03-06T08:27:37;87713.56;;;14.89;31.38
84696;BME280;74913;40.204;44.532;2024-03-06T08:30:06;87719.38;;;14.85;31.32
84696;BME280;74913;40.204;44.532;2024-03-06T08:32:34;87707.47;;;14.81;31.28
84696;BME280;74913;40.204;44.532;2024-03-06T08:35:08;87711.81;;;14.84;30.65
84696;BME280;74913;40.204;44.532;2024-03-06T08:37:37;87710.72;;;14.87;31.18
84696;BME280;74913;40.204;44.532;2024-03-06T08:40:04;87688.19;;;14.76;31.20
84696;BME280;74913;40.204;44.532;2024-03-06T08:42:30;87708.13;;;14.96;30.98
84696;BME280;74913;40.204;44.532;2024-03-06T08:44:56;87706.75;;;14.88;30.21
84696;BME280;74913;40.204;44.532;2024-03-06T08:47:22;87708.13;;;14.96;30.94
84696;BME280;74913;40.204;44.532;2024-03-06T08:49:47;87703.69;;;14.84;30.40
84696;BME280;74913;40.204;44.532;2024-03-06T08:52:13;87706.50;;;14.93;30.80
84696;BME280;74913;40.204;44.532;2024-03-06T08:54:42;87698.00;;;14.97;30.81
84696;BME280;74913;40.204;44.532;2024-03-06T08:57:10;87692.59;;;14.97;30.88
84696;BME280;74913;40.204;44.532;2024-03-06T08:59:36;87695.47;;;14.99;30.88
84696;BME280;74913;40.204;44.532;2024-03-06T09:04:43;87689.03;;;15.19;30.61
84696;BME280;74913;40.204;44.532;2024-03-06T09:07:08;87686.00;;;15.15;29.86
84696;BME280;74913;40.204;44.532;2024-03-06T09:09:35;87680.63;;;15.32;30.39
84696;BME280;74913;40.204;44.532;2024-03-06T09:12:03;87678.91;;;15.44;30.43
84696;BME280;74913;40.204;44.532;2024-03-06T09:14:32;87665.47;;;15.54;30.02
84696;BME280;74913;40.204;44.532;2024-03-06T09:16:58;87660.00;;;15.61;29.83
84696;BME280;74913;40.204;44.532;2024-03-06T09:19:23;87658.63;;;15.53;29.36
84696;BME280;74913;40.204;44.532;2024-03-06T09:21:49;87656.16;;;15.64;29.76
84696;BME280;74913;40.204;44.532;2024-03-06T09:24:15;87654.41;;;15.59;28.93
84696;BME280;74913;40.204;44.532;2024-03-06T09:26:40;87652.34;;;15.67;29.71
84696;BME280;74913;40.204;44.532;2024-03-06T09:29:06;87645.81;;;15.70;29.41
84696;BME280;74913;40.204;44.532;2024-03-06T09:31:31;87646.94;;;15.67;28.91
84696;BME280;74913;40.204;44.532;2024-03-06T09:33:57;87634.34;;;15.79;29.24
84696;BME280;74913;40.204;44.532;2024-03-06T09:36:23;87635.16;;;15.89;28.99
84696;BME280;74913;40.204;44.532;2024-03-06T09:38:50;87635.53;;;15.86;28.61
84696;BME280;74913;40.204;44.532;2024-03-06T09:41:17;87621.44;;;15.87;28.67
84696;BME280;74913;40.204;44.532;2024-03-06T09:43:43;87631.63;;;15.79;28.19
84696;BME280;74913;40.204;44.532;2024-03-06T09:46:09;87636.00;;;15.75;28.50
84696;BME280;74913;40.204;44.532;2024-03-06T09:48:35;87625.41;;;15.86;28.78
84696;BME280;74913;40.204;44.532;2024-03-06T09:51:01;87627.72;;;15.90;28.57
84696;BME280;74913;40.204;44.532;2024-03-06T09:53:28;87611.19;;;15.78;28.78
84696;BME280;74913;40.204;44.532;2024-03-06T09:55:56;87618.22;;;15.81;28.65
84696;BME280;74913;40.204;44.532;2024-03-06T09:58:23;87620.13;;;15.71;28.40
84696;BME280;74913;40.204;44.532;2024-03-06T10:00:50;87626.34;;;15.64;28.84
84696;BME280;74913;40.204;44.532;2024-03-06T10:03:16;87621.31;;;15.61;29.00
84696;BME280;74913;40.204;44.532;2024-03-06T10:05:42;87629.03;;;15.47;28.53
84696;BME280;74913;40.204;44.532;2024-03-06T10:08:08;87626.81;;;15.53;28.50
84696;BME280;74913;40.204;44.532;2024-03-06T10:10:35;87622.69;;;15.69;29.09
84696;BME280;74913;40.204;44.532;2024-03-06T10:13:02;87625.91;;;15.75;28.67
84696;BME280;74913;40.204;44.532;2024-03-06T10:15:28;87611.69;;;15.84;28.63
84696;BME280;74913;40.204;44.532;2024-03-06T10:18:15;87614.91;;;15.90;28.03
84696;BME280;74913;40.204;44.532;2024-03-06T10:20:43;87606.09;;;15.99;28.63
84696;BME280;74913;40.204;44.532;2024-03-06T10:23:09;87612.34;;;15.92;28.20
84696;BME280;74913;40.204;44.532;2024-03-06T10:25:34;87606.09;;;15.99;28.53
84696;BME280;74913;40.204;44.532;2024-03-06T10:28:08;87584.56;;;15.84;27.82
84696;BME280;74913;40.204;44.532;2024-03-06T10:30:38;87606.09;;;15.99;28.73
84696;BME280;74913;40.204;44.532;2024-03-06T10:33:07;87599.22;;;15.98;28.56
84696;BME280;74913;40.204;44.532;2024-03-06T10:35:34;87597.00;;;16.04;28.19
84696;BME280;74913;40.204;44.532;2024-03-06T10:38:02;87586.09;;;15.95;28.13
84696;BME280;74913;40.204;44.532;2024-03-06T10:40:31;87599.66;;;15.78;28.51
84696;BME280;74913;40.204;44.532;2024-03-06T10:42:59;87604.72;;;15.57;28.97
84696;BME280;74913;40.204;44.532;2024-03-06T10:45:35;87600.47;;;15.46;29.07
84696;BME280;74913;40.204;44.532;2024-03-06T10:48:08;87592.97;;;15.37;29.14
84696;BME280;74913;40.204;44.532;2024-03-06T10:50:40;87592.59;;;15.40;29.17
84696;BME280;74913;40.204;44.532;2024-03-06T10:53:14;87593.91;;;15.32;29.07
84696;BME280;74913;40.204;44.532;2024-03-06T10:55:43;87589.59;;;15.29;29.36
84696;BME280;74913;40.204;44.532;2024-03-06T10:58:12;87589.44;;;15.27;29.50
84696;BME280;74913;40.204;44.532;2024-03-06T11:00:41;87591.66;;;15.21;29.67
84696;BME280;74913;40.204;44.532;2024-03-06T11:03:09;87586.28;;;15.13;29.70
84696;BME280;74913;40.204;44.532;2024-03-06T11:05:44;87585.25;;;15.09;29.61
84696;BME280;74913;40.204;44.532;2024-03-06T11:08:14;87573.00;;;15.08;29.90
84696;BME280;74913;40.204;44.532;2024-03-06T11:10:41;87584.16;;;15.12;29.95
84696;BME280;74913;40.204;44.532;2024-03-06T11:15:45;87582.22;;;15.05;30.31
84696;BME280;74913;40.204;44.532;2024-03-06T11:23:31;87581.50;;;14.80;30.06
84696;BME280;74913;40.204;44.532;2024-03-06T11:26:06;87585.16;;;14.74;30.43
84696;BME280;74913;40.204;44.532;2024-03-06T11:28:36;87569.16;;;14.61;30.19
84696;BME280;74913;40.204;44.532;2024-03-06T11:31:03;87586.28;;;14.64;30.44
84696;BME280;74913;40.204;44.532;2024-03-06T11:33:39;87578.22;;;14.56;30.43
84696;BME280;74913;40.204;44.532;2024-03-06T11:36:24;87583.03;;;14.65;30.94
84696;BME280;74913;40.204;44.532;2024-03-06T11:38:58;87579.38;;;14.70;30.74
84696;BME280;74913;40.204;44.532;2024-03-06T11:41:48;87578.13;;;14.71;30.75
84696;BME280;74913;40.204;44.532;2024-03-06T11:44:21;87587.69;;;14.72;30.80
84696;BME280;74913;40.204;44.532;2024-03-06T11:46:59;87563.44;;;14.57;30.76
84696;BME280;74913;40.204;44.532;2024-03-06T11:49:29;87577.28;;;14.61;31.16
84696;BME280;74913;40.204;44.532;2024-03-06T11:54:31;87586.38;;;14.49;31.34
84696;BME280;74913;40.204;44.532;2024-03-06T11:56:58;87577.78;;;14.43;31.63
84696;BME280;74913;40.204;44.532;2024-03-06T11:59:28;87588.94;;;14.47;31.74
84696;BME280;74913;40.204;44.532;2024-03-06T12:01:55;87586.75;;;14.53;31.88
84696;BME280;74913;40.204;44.532;2024-03-06T12:04:21;87573.59;;;14.49;31.71
84696;BME280;74913;40.204;44.532;2024-03-06T12:06:47;87577.34;;;14.54;31.66
84696;BME280;74913;40.204;44.532;2024-03-06T12:09:13;87586.34;;;14.56;31.85
84696;BME280;74913;40.204;44.532;2024-03-06T12:11:40;87583.47;;;14.54;31.40
84696;BME280;74913;40.204;44.532;2024-03-06T12:14:13;87568.69;;;14.55;31.69
84696;BME280;74913;40.204;44.532;2024-03-06T12:16:39;87579.66;;;14.57;31.89
84696;BME280;74913;40.204;44.532;2024-03-06T12:19:05;87578.22;;;14.56;31.84
84696;BME280;74913;40.204;44.532;2024-03-06T12:21:33;87579.41;;;14.38;32.02
84696;BME280;74913;40.204;44.532;2024-03-06T12:24:06;87573.63;;;14.42;32.20
84696;BME280;74913;40.204;44.532;2024-03-06T12:26:32;87591.69;;;14.39;32.16
84696;BME280;74913;40.204;44.532;2024-03-06T12:29:04;87585.06;;;14.25;32.95
84696;BME280;74913;40.204;44.532;2024-03-06T12:31:31;87566.28;;;14.27;32.32
84696;BME280;74913;40.204;44.532;2024-03-06T12:33:57;87574.69;;;14.06;32.60
84696;BME280;74913;40.204;44.532;2024-03-06T12:36:28;87569.63;;;14.03;32.79
84696;BME280;74913;40.204;44.532;2024-03-06T12:38:55;87572.34;;;14.03;32.18
84696;BME280;74913;40.204;44.532;2024-03-06T12:41:22;87578.69;;;13.98;32.47
84696;BME280;74913;40.204;44.532;2024-03-06T12:43:47;87574.03;;;13.91;32.54
84696;BME280;74913;40.204;44.532;2024-03-06T12:46:13;87573.75;;;13.72;33.43
84696;BME280;74913;40.204;44.532;2024-03-06T12:48:38;87576.44;;;13.72;33.23
84696;BME280;74913;40.204;44.532;2024-03-06T12:51:04;87575.94;;;13.58;33.42
84696;BME280;74913;40.204;44.532;2024-03-06T12:53:33;87571.44;;;13.61;32.83
84696;BME280;74913;40.204;44.532;2024-03-06T12:56:00;87568.56;;;13.59;33.16
84696;BME280;74913;40.204;44.532;2024-03-06T12:58:26;87574.00;;;13.43;33.67
84696;BME280;74913;40.204;44.532;2024-03-06T13:00:51;87564.66;;;13.44;33.64
84696;BME280;74913;40.204;44.532;2024-03-06T13:03:18;87562.66;;;13.45;33.12
84696;BME280;74913;40.204;44.532;2024-03-06T13:05:43;87561.78;;;13.42;33.14
84696;BME280;74913;40.204;44.532;2024-03-06T13:08:10;87563.38;;;13.45;33.59